Annapolis, Illinois
Current Conditions -  °F | °C
As of 6:55 AM on Friday 31 Oct 2014 (Local Time) from KRSV Reporting Station
Overcast Overcast  
Wind Chill:   Ceiling: 7500
Heat Index:   Visibility: 7mi
Dew Point:   Wind: 7mph
Humidity: 93%   Direction: 300°WNW
Pressure: 30.06"   Gusts: NA
Location:  39.14°N, 87.82°W
Report Text: KRSV 311155Z AUTO 30006KT 7SM OVC075 08/07 A3006 RMK AO2 70006 T00820071 10091 20075
Loading
Personal Weather Stations






























Interactive Weather Map
Tropical Storm Tracking
New forecast layout! Learn more

10-Day Weather Forecast

Advertisements
Track Severe Weather on mobile